Time;durP1;ratioP1;P1;durP2;ratioP2;P2;SDS_P1;SDS_P2;PMS_P1;PMS_P2;Temp;Humidity;BMP_temperature;BMP_pressure;BME280_temperature;BME280_humidity;BME280_pressure;Samples;Min_cycle;Max_cycle;Signal;HPM_P1;HPM_P2
2021/06/28 00:02:38;;;;;;;4.80;3.03;;;20.50;99.90;;;;;;12398460;28;20133;-40
2021/06/28 00:08:42;;;;;;;4.53;2.90;;;20.30;99.90;;;;;;12403917;28;20144;-41
2021/06/28 00:14:44;;;;;;;4.60;3.38;;;20.40;99.90;;;;;;12397428;28;20144;-39
2021/06/28 00:20:47;;;;;;;4.80;3.10;;;20.30;99.90;;;;;;12405083;28;20132;-41
2021/06/28 00:26:49;;;;;;;5.03;3.10;;;20.40;99.90;;;;;;12401578;28;20815;-40
2021/06/28 00:32:52;;;;;;;6.30;3.47;;;20.30;99.90;;;;;;12397066;28;20092;-40
2021/06/28 00:38:54;;;;;;;7.10;3.35;;;20.30;99.90;;;;;;12400811;28;20058;-40
2021/06/28 00:44:56;;;;;;;6.88;3.15;;;20.10;99.90;;;;;;12390305;28;20148;-40
2021/06/28 00:50:58;;;;;;;7.32;3.50;;;19.90;99.90;;;;;;12399417;28;20478;-40
2021/06/28 00:57:00;;;;;;;4.90;3.50;;;19.90;99.90;;;;;;12400261;28;20088;-39
2021/06/28 01:03:04;;;;;;;4.53;3.30;;;19.90;99.90;;;;;;12406797;28;20085;-40
2021/06/28 01:09:06;;;;;;;5.53;3.88;;;20.10;99.90;;;;;;12410058;28;20157;-40
2021/06/28 01:15:08;;;;;;;6.95;3.25;;;20.10;99.90;;;;;;12405147;28;20054;-40
2021/06/28 01:21:12;;;;;;;6.18;3.33;;;20.00;99.90;;;;;;12406137;28;20054;-40
2021/06/28 01:27:13;;;;;;;4.15;3.47;;;19.90;99.90;;;;;;12407132;28;20565;-40
2021/06/28 01:33:16;;;;;;;15.98;4.00;;;19.70;99.90;;;;;;12405627;28;20078;-40
2021/06/28 01:39:20;;;;;;;8.98;3.70;;;19.50;99.90;;;;;;12404216;28;20049;-40
2021/06/28 01:45:23;;;;;;;7.57;3.85;;;19.50;99.90;;;;;;12404915;28;20149;-41
2021/06/28 01:51:25;;;;;;;8.63;3.22;;;19.50;99.90;;;;;;12406373;28;20141;-39
2021/06/28 01:57:27;;;;;;;5.10;3.50;;;19.60;99.90;;;;;;12404606;28;20764;-39
2021/06/28 02:03:36;;;;;;;7.05;3.33;;;19.70;99.90;;;;;;12400619;28;20161;-39
2021/06/28 02:09:38;;;;;;;10.65;3.97;;;19.80;99.90;;;;;;12400855;28;20054;-41
2021/06/28 02:15:40;;;;;;;10.15;3.72;;;19.90;99.90;;;;;;12408161;28;20141;-40
2021/06/28 02:21:44;;;;;;;20.40;4.50;;;20.00;99.90;;;;;;12400344;28;20144;-39
2021/06/28 02:27:47;;;;;;;9.03;3.30;;;20.10;99.90;;;;;;12406520;28;20395;-40
2021/06/28 02:33:51;;;;;;;16.42;3.75;;;19.70;99.90;;;;;;12400988;28;20554;-42
2021/06/28 02:39:52;;;;;;;;;;;19.80;99.90;;;;;;12400575;28;20104;-40
2021/06/28 02:45:54;;;;;;;6.10;3.78;;;19.70;99.90;;;;;;12401958;28;20040;-39
2021/06/28 02:51:56;;;;;;;17.88;4.85;;;19.60;99.90;;;;;;12398847;28;20081;-41
2021/06/28 02:57:59;;;;;;;11.95;3.72;;;19.60;99.90;;;;;;12402060;28;20145;-40
2021/06/28 03:04:00;;;;;;;12.30;4.53;;;19.50;99.90;;;;;;12399183;28;20482;-40
2021/06/28 03:10:11;;;;;;;9.68;4.10;;;19.60;99.90;;;;;;12403377;28;20402;-40
2021/06/28 03:16:13;;;;;;;7.78;4.10;;;19.60;99.90;;;;;;12405598;28;20089;-39
2021/06/28 03:22:17;;;;;;;7.72;4.38;;;19.40;99.90;;;;;;12398103;28;20145;-40
2021/06/28 03:28:19;;;;;;;10.07;4.60;;;19.50;99.90;;;;;;12398769;28;20078;-39
2021/06/28 03:34:21;;;;;;;10.02;3.90;;;19.40;99.90;;;;;;12396564;28;20049;-40
2021/06/28 03:40:23;;;;;;;9.25;4.30;;;19.40;99.90;;;;;;12399698;28;20137;-40
2021/06/28 03:46:25;;;;;;;8.65;4.50;;;19.30;99.90;;;;;;12396537;28;20050;-39
2021/06/28 03:52:27;;;;;;;9.70;4.22;;;19.40;99.90;;;;;;12398237;28;20100;-39
2021/06/28 03:58:29;;;;;;;15.25;4.80;;;19.30;99.90;;;;;;12399907;28;20054;-41
2021/06/28 04:04:31;;;;;;;5.25;3.97;;;19.20;99.90;;;;;;12399789;28;20100;-39
2021/06/28 04:10:33;;;;;;;6.65;3.75;;;19.20;99.90;;;;;;12394392;28;20429;-40
2021/06/28 04:16:35;;;;;;;5.55;3.90;;;19.30;99.90;;;;;;12395683;28;20199;-40
2021/06/28 04:22:38;;;;;;;9.30;4.45;;;19.40;99.90;;;;;;12389765;28;20164;-41
2021/06/28 04:28:40;;;;;;;8.73;4.13;;;19.40;99.90;;;;;;12380227;28;20049;-40
2021/06/28 04:34:45;;;;;;;4.93;3.40;;;19.40;99.90;;;;;;12385758;28;20557;-39
2021/06/28 04:40:48;;;;;;;3.30;3.00;;;19.50;99.90;;;;;;12379679;28;20050;-40
2021/06/28 04:46:50;;;;;;;4.63;3.50;;;19.50;99.90;;;;;;12384224;28;20924;-41
2021/06/28 04:52:54;;;;;;;5.10;3.92;;;19.60;99.90;;;;;;12381242;28;20104;-42
2021/06/28 04:58:55;;;;;;;;;;;19.50;99.90;;;;;;12389999;28;20459;-39
2021/06/28 05:04:57;;;;;;;5.78;4.00;;;19.50;99.90;;;;;;12381097;28;19930;-40
2021/06/28 05:10:59;;;;;;;6.90;3.78;;;19.50;99.90;;;;;;12382659;28;20488;-40
2021/06/28 05:17:01;;;;;;;9.13;4.85;;;19.60;99.90;;;;;;12377237;28;20624;-41
2021/06/28 05:23:03;;;;;;;7.70;3.83;;;19.70;99.90;;;;;;12389458;28;20870;-43
2021/06/28 05:29:05;;;;;;;6.53;3.53;;;19.60;99.90;;;;;;12387405;28;20053;-40
2021/06/28 05:35:08;;;;;;;6.10;4.63;;;19.70;99.90;;;;;;12386537;28;20461;-40
2021/06/28 05:41:10;;;;;;;7.45;5.38;;;19.70;99.90;;;;;;12385742;28;20053;-42
2021/06/28 05:47:13;;;;;;;5.05;4.18;;;19.70;99.90;;;;;;12390854;28;20061;-39
2021/06/28 05:53:15;;;;;;;10.68;3.80;;;19.70;99.90;;;;;;12387387;28;20049;-40
2021/06/28 05:59:17;;;;;;;6.75;3.72;;;19.70;99.90;;;;;;12394088;28;20057;-41
2021/06/28 06:05:19;;;;;;;6.53;3.95;;;19.80;99.90;;;;;;12377111;28;20050;-40
2021/06/28 06:11:21;;;;;;;6.55;4.20;;;19.90;99.90;;;;;;12391127;28;20042;-41
2021/06/28 06:17:23;;;;;;;4.63;3.33;;;20.00;99.90;;;;;;12388834;28;20585;-40
2021/06/28 06:23:24;;;;;;;4.43;3.80;;;20.30;99.90;;;;;;12396521;28;20046;-40
2021/06/28 06:29:26;;;;;;;5.05;3.50;;;20.60;99.90;;;;;;12384483;28;20137;-41
2021/06/28 06:35:28;;;;;;;6.13;3.58;;;20.70;99.90;;;;;;12394745;28;20119;-40
2021/06/28 06:41:31;;;;;;;5.07;3.58;;;20.90;99.90;;;;;;12384685;28;20141;-39
2021/06/28 06:47:33;;;;;;;4.50;3.35;;;21.10;99.90;;;;;;12390494;28;20066;-40
2021/06/28 06:53:35;;;;;;;4.95;3.80;;;21.30;99.90;;;;;;12379963;28;20172;-40
2021/06/28 06:59:37;;;;;;;4.45;3.40;;;21.50;99.90;;;;;;12390368;28;20076;-42
2021/06/28 07:05:39;;;;;;;4.82;3.35;;;21.70;99.90;;;;;;12382838;28;20466;-39
2021/06/28 07:11:41;;;;;;;5.63;3.90;;;21.90;99.90;;;;;;12394359;28;20097;-41
2021/06/28 07:17:44;;;;;;;6.78;3.60;;;21.90;99.90;;;;;;12380535;28;20474;-39
2021/06/28 07:23:49;;;;;;;4.40;3.53;;;22.10;99.90;;;;;;12388623;28;20101;-40
2021/06/28 07:29:51;;;;;;;4.88;3.75;;;22.00;99.90;;;;;;12384700;28;20103;-40
2021/06/28 07:35:54;;;;;;;5.70;3.75;;;22.00;99.90;;;;;;12383116;28;20042;-41
2021/06/28 07:41:55;;;;;;;5.33;4.13;;;22.00;99.90;;;;;;12384627;28;20532;-40
2021/06/28 07:47:58;;;;;;;7.85;4.00;;;22.20;99.90;;;;;;12384992;28;20050;-40
2021/06/28 07:54:00;;;;;;;5.75;4.30;;;22.20;99.90;;;;;;12388949;28;20149;-41
2021/06/28 08:00:07;;;;;;;7.35;4.57;;;22.30;99.90;;;;;;12385473;28;20062;-40
2021/06/28 08:06:10;;;;;;;5.18;3.90;;;22.40;99.90;;;;;;12380146;28;20136;-42
2021/06/28 08:12:12;;;;;;;5.28;4.03;;;22.60;99.90;;;;;;12379464;28;20108;-40
2021/06/28 08:18:14;;;;;;;4.57;3.88;;;22.80;99.90;;;;;;12380200;28;20046;-40
2021/06/28 08:24:16;;;;;;;6.93;3.95;;;23.00;99.90;;;;;;12382401;28;20054;-40
2021/06/28 08:30:19;;;;;;;4.30;3.90;;;23.30;99.90;;;;;;12384833;28;20465;-40
2021/06/28 08:36:21;;;;;;;5.55;4.10;;;23.50;99.90;;;;;;12385107;28;20121;-43
2021/06/28 08:42:23;;;;;;;4.85;4.18;;;23.70;99.90;;;;;;12379078;28;20644;-40
2021/06/28 08:48:25;;;;;;;6.70;4.18;;;23.70;99.90;;;;;;12376759;28;20527;-40
2021/06/28 08:54:26;;;;;;;5.65;3.90;;;23.70;99.90;;;;;;12383412;28;20141;-40
2021/06/28 09:00:28;;;;;;;7.07;5.32;;;23.90;99.90;;;;;;12387556;28;20039;-40
2021/06/28 09:06:31;;;;;;;6.05;4.13;;;24.00;99.90;;;;;;12381009;28;20558;-40
2021/06/28 09:12:33;;;;;;;4.72;3.70;;;24.40;99.90;;;;;;12380477;28;20148;-40
2021/06/28 09:18:35;;;;;;;4.88;3.35;;;24.90;99.90;;;;;;12386026;28;20402;-40
2021/06/28 09:24:44;;;;;;;5.80;3.17;;;25.10;99.90;;;;;;12391050;28;20058;-41
2021/06/28 09:30:51;;;;;;;3.63;2.90;;;25.10;99.90;;;;;;12390952;28;20048;-40
2021/06/28 09:36:57;;;;;;;3.70;2.88;;;25.30;99.90;;;;;;12389715;28;20057;-40
2021/06/28 09:43:19;;;;;;;3.78;2.80;;;25.30;99.90;;;;;;12388401;28;20678;-40
2021/06/28 09:49:20;;;;;;;4.35;3.30;;;25.40;99.90;;;;;;12391299;28;21100;-39
2021/06/28 09:55:29;;;;;;;3.83;3.42;;;26.10;99.90;;;;;;12388963;28;20057;-40
2021/06/28 10:01:34;;;;;;;6.13;3.00;;;26.40;99.90;;;;;;12388590;28;20410;-41
2021/06/28 10:07:39;;;;;;;5.03;3.57;;;26.30;99.90;;;;;;12387734;28;20050;-40
2021/06/28 10:13:41;;;;;;;5.25;2.95;;;26.30;99.90;;;;;;12374955;28;20100;-40
2021/06/28 10:19:44;;;;;;;4.20;3.60;;;26.30;99.90;;;;;;12393190;28;20104;-40
2021/06/28 10:25:45;;;;;;;3.60;3.00;;;26.10;99.90;;;;;;12375393;28;20141;-41
2021/06/28 10:31:47;;;;;;;3.85;3.15;;;25.90;99.90;;;;;;12384428;28;20054;-40
2021/06/28 10:37:50;;;;;;;6.00;3.50;;;25.60;99.90;;;;;;12390773;28;20074;-40
2021/06/28 10:43:54;;;;;;;4.18;3.50;;;25.40;99.90;;;;;;12382632;28;20104;-40
2021/06/28 10:49:57;;;;;;;4.95;3.60;;;25.20;99.90;;;;;;12392643;28;20514;-39
2021/06/28 11:02:37;;;;;;;3.90;3.28;;;24.90;99.90;;;;;;12395557;28;20141;-40
2021/06/28 11:08:58;;;;;;;5.28;3.30;;;24.90;99.90;;;;;;12370541;28;20054;-40
2021/06/28 11:15:08;;;;;;;3.65;3.10;;;24.80;99.90;;;;;;12380298;28;20899;-42
2021/06/28 11:21:10;;;;;;;4.72;3.75;;;24.70;99.90;;;;;;12383281;28;20058;-40
2021/06/28 11:27:21;;;;;;;4.80;3.67;;;24.60;99.90;;;;;;12386539;28;20127;-40
2021/06/28 11:33:48;;;;;;;5.80;3.78;;;24.50;99.90;;;;;;12381086;28;20050;-41
2021/06/28 11:40:04;;;;;;;5.05;4.10;;;24.40;99.90;;;;;;12383211;28;20542;-40
2021/06/28 11:46:30;;;;;;;5.03;4.18;;;24.20;99.90;;;;;;12388464;28;20053;-41
2021/06/28 11:52:32;;;;;;;5.88;4.50;;;24.00;99.90;;;;;;12375120;28;20042;-40
2021/06/28 11:58:35;;;;;;;5.05;4.45;;;24.00;99.90;;;;;;12389580;28;20987;-40
2021/06/28 12:04:37;;;;;;;5.35;4.53;;;23.80;99.90;;;;;;12377460;28;20054;-41
2021/06/28 12:10:43;;;;;;;7.93;4.30;;;23.70;99.90;;;;;;12384739;28;20054;-40
2021/06/28 12:16:45;;;;;;;5.97;4.53;;;23.90;99.90;;;;;;12379672;28;20709;-40
2021/06/28 12:22:50;;;;;;;6.88;4.50;;;24.30;99.90;;;;;;12386701;28;20465;-40
2021/06/28 12:28:52;;;;;;;6.28;4.50;;;24.50;99.90;;;;;;12376754;28;20054;-40
2021/06/28 12:34:59;;;;;;;5.30;4.32;;;24.60;99.90;;;;;;12387686;28;20046;-40
2021/06/28 12:41:00;;;;;;;7.80;4.90;;;24.70;99.90;;;;;;12377282;28;20069;-40
2021/06/28 12:47:03;;;;;;;5.53;4.93;;;25.00;99.90;;;;;;12388819;28;20100;-40
2021/06/28 12:53:13;;;;;;;5.60;4.63;;;25.20;99.90;;;;;;12388758;28;20437;-40
2021/06/28 12:59:32;;;;;;;7.00;4.75;;;25.10;99.90;;;;;;12399476;28;20058;-40
2021/06/28 13:05:38;;;;;;;8.35;4.85;;;25.00;99.90;;;;;;12390427;28;20148;-40
2021/06/28 13:12:01;;;;;;;6.80;4.63;;;25.10;99.90;;;;;;12392855;28;20588;-42
2021/06/28 13:18:03;;;;;;;6.03;4.90;;;24.90;99.90;;;;;;12387954;28;20078;-42
2021/06/28 13:24:18;;;;;;;6.10;4.80;;;24.80;99.90;;;;;;12399057;28;20054;-41
2021/06/28 13:30:22;;;;;;;5.93;4.70;;;24.70;99.90;;;;;;12394900;28;21915;-41
2021/06/28 13:36:24;;;;;;;8.30;4.65;;;24.60;99.90;;;;;;12396778;28;20713;-42
2021/06/28 13:42:41;;;;;;;5.85;4.75;;;24.60;99.90;;;;;;12395069;28;20052;-41
2021/06/28 13:48:42;;;;;;;7.82;5.32;;;24.60;99.90;;;;;;12394080;28;20140;-40
2021/06/28 13:54:44;;;;;;;6.75;5.68;;;24.60;99.90;;;;;;12393418;28;20050;-40
2021/06/28 14:00:48;;;;;;;6.63;5.55;;;24.40;99.90;;;;;;12395796;28;20608;-40
2021/06/28 14:06:52;;;;;;;6.65;5.40;;;24.30;99.90;;;;;;12389337;28;20562;-40
2021/06/28 14:12:54;;;;;;;6.40;5.30;;;24.20;99.90;;;;;;12394645;28;20056;-41
2021/06/28 14:18:56;;;;;;;7.35;5.38;;;24.10;99.90;;;;;;12388979;28;20085;-40
2021/06/28 14:24:58;;;;;;;7.88;6.18;;;24.10;99.90;;;;;;12400444;28;20144;-40
2021/06/28 14:31:00;;;;;;;8.63;7.00;;;23.90;99.90;;;;;;12397290;28;20054;-39
2021/06/28 14:37:02;;;;;;;9.98;6.00;;;23.80;99.90;;;;;;12396380;28;20081;-40
2021/06/28 14:43:04;;;;;;;8.85;7.30;;;23.70;99.90;;;;;;12392155;28;20112;-40
2021/06/28 14:49:06;;;;;;;8.75;5.65;;;23.60;99.90;;;;;;12391801;28;20064;-40
2021/06/28 14:55:09;;;;;;;7.25;6.07;;;23.60;99.90;;;;;;12392375;28;20149;-40
2021/06/28 15:01:12;;;;;;;12.10;6.68;;;23.60;99.90;;;;;;12393849;28;20050;-39
2021/06/28 15:07:14;;;;;;;7.47;6.40;;;23.60;99.90;;;;;;12390436;28;20089;-40
2021/06/28 15:13:16;;;;;;;11.10;6.60;;;23.50;99.90;;;;;;12388178;28;20145;-41
2021/06/28 15:19:19;;;;;;;8.25;6.13;;;23.50;99.90;;;;;;12387542;28;20060;-40
2021/06/28 15:25:21;;;;;;;6.95;5.80;;;23.60;99.90;;;;;;12384316;28;20141;-41
2021/06/28 15:31:24;;;;;;;9.00;6.30;;;23.80;99.90;;;;;;12388367;28;20063;-40
2021/06/28 15:37:26;;;;;;;8.23;6.23;;;24.00;99.90;;;;;;12385064;28;20130;-39
2021/06/28 15:43:28;;;;;;;9.23;5.85;;;24.10;99.90;;;;;;12391860;28;20062;-40
2021/06/28 15:49:29;;;;;;;7.53;6.20;;;24.10;99.90;;;;;;12382136;28;20078;-40
2021/06/28 15:55:32;;;;;;;10.68;7.15;;;23.90;99.90;;;;;;12384399;28;20054;-40
2021/06/28 16:01:36;;;;;;;7.30;6.60;;;24.00;99.90;;;;;;12386791;28;20372;-40
2021/06/28 16:07:38;;;;;;;8.90;6.70;;;23.90;99.90;;;;;;12382029;28;20509;-40
2021/06/28 16:13:55;;;;;;;9.90;6.50;;;23.70;99.90;;;;;;12376301;28;20737;-41
2021/06/28 16:19:57;;;;;;;8.90;7.15;;;23.60;99.90;;;;;;12379002;28;20046;-40
2021/06/28 16:25:59;;;;;;;9.13;7.30;;;23.50;99.90;;;;;;12378824;28;20645;-40
2021/06/28 16:32:06;;;;;;;9.13;7.22;;;23.40;99.90;;;;;;12377284;28;20077;-40
2021/06/28 16:38:08;;;;;;;6.05;4.38;;;23.30;99.90;;;;;;12383913;28;20448;-41
2021/06/28 16:44:10;;;;;;;5.30;3.90;;;22.90;99.90;;;;;;12374603;28;20050;-39
2021/06/28 16:50:13;;;;;;;5.35;3.42;;;22.30;99.90;;;;;;12381942;28;20293;-43
2021/06/28 16:56:15;;;;;;;4.53;3.17;;;21.80;99.90;;;;;;12384003;28;20064;-40
2021/06/28 17:02:16;;;;;;;7.20;3.85;;;21.40;99.90;;;;;;12383601;28;20184;-40
2021/06/28 17:08:19;;;;;;;6.97;3.78;;;21.00;99.90;;;;;;12388519;28;20106;-40
2021/06/28 17:14:22;;;;;;;7.37;3.90;;;20.70;99.90;;;;;;12374856;28;20050;-40
2021/06/28 17:20:24;;;;;;;11.50;3.80;;;20.50;99.90;;;;;;12383606;28;20089;-40
2021/06/28 17:26:26;;;;;;;5.80;4.38;;;20.40;99.90;;;;;;12385692;28;20402;-40
2021/06/28 17:32:27;;;;;;;7.20;5.88;;;20.40;99.90;;;;;;12385659;28;20451;-41
2021/06/28 17:38:36;;;;;;;8.45;6.32;;;20.40;99.90;;;;;;12388297;28;20046;-40
2021/06/28 17:44:38;;;;;;;6.90;5.70;;;20.20;99.90;;;;;;12397672;28;20049;-41
2021/06/28 17:50:39;;;;;;;6.53;3.80;;;20.20;99.90;;;;;;12397083;28;20056;-41
2021/06/28 17:56:41;;;;;;;4.65;3.80;;;20.00;99.90;;;;;;12401258;28;20042;-40
2021/06/28 18:02:44;;;;;;;6.32;4.00;;;19.80;99.90;;;;;;12392674;28;20133;-40
2021/06/28 18:08:48;;;;;;;7.03;4.93;;;19.60;99.90;;;;;;12386444;28;20081;-41
2021/06/28 18:14:49;;;;;;;6.40;5.18;;;19.50;99.90;;;;;;12387081;28;20049;-41
2021/06/28 18:20:51;;;;;;;6.10;5.05;;;19.60;99.90;;;;;;12389946;28;20047;-39
2021/06/28 18:26:53;;;;;;;6.32;5.18;;;19.60;99.90;;;;;;12396638;28;20095;-40
2021/06/28 18:32:55;;;;;;;5.95;5.18;;;19.70;99.90;;;;;;12402228;28;20077;-40
2021/06/28 18:38:57;;;;;;;9.20;5.05;;;19.80;99.90;;;;;;12402130;28;20046;-40
2021/06/28 18:44:59;;;;;;;6.80;5.07;;;19.80;99.90;;;;;;12400095;28;20149;-40
2021/06/28 18:51:02;;;;;;;5.55;4.78;;;20.00;99.90;;;;;;12396965;28;20094;-39
2021/06/28 18:57:05;;;;;;;8.15;4.85;;;20.20;99.90;;;;;;12398634;28;20141;-40
2021/06/28 19:03:10;;;;;;;8.38;4.50;;;20.40;99.90;;;;;;12396955;28;20054;-40
2021/06/28 19:09:12;;;;;;;6.20;4.38;;;20.50;99.90;;;;;;12395686;28;20145;-40
2021/06/28 19:15:14;;;;;;;7.10;4.80;;;20.20;99.90;;;;;;12395132;28;20132;-40
2021/06/28 19:21:17;;;;;;;6.20;4.15;;;19.90;99.90;;;;;;12398213;28;20046;-40
2021/06/28 19:27:19;;;;;;;5.38;4.38;;;19.90;99.90;;;;;;12400054;28;20084;-40
2021/06/28 19:33:21;;;;;;;6.88;4.57;;;20.10;99.90;;;;;;12402151;28;20157;-40
2021/06/28 19:39:22;;;;;;;10.38;4.30;;;20.10;99.90;;;;;;12398285;28;20145;-40
2021/06/28 19:45:24;;;;;;;5.88;3.60;;;19.80;99.90;;;;;;12394849;28;20126;-40
2021/06/28 19:51:26;;;;;;;8.57;3.75;;;19.30;99.90;;;;;;12394688;28;20050;-39
2021/06/28 19:57:28;;;;;;;6.45;4.20;;;19.20;99.90;;;;;;12399152;28;20061;-41
2021/06/28 20:03:31;;;;;;;8.70;4.53;;;19.20;99.90;;;;;;12391935;28;20049;-40
2021/06/28 20:09:37;;;;;;;8.02;4.18;;;19.20;99.90;;;;;;12394125;28;20062;-39
2021/06/28 20:15:38;;;;;;;7.30;3.88;;;19.30;99.90;;;;;;12393424;28;20065;-40
2021/06/28 20:21:40;;;;;;;6.45;3.42;;;19.30;99.90;;;;;;12395933;28;20502;-40
2021/06/28 20:27:43;;;;;;;6.13;3.65;;;19.30;99.90;;;;;;12392654;28;20633;-39
2021/06/28 20:33:46;;;;;;;7.35;3.35;;;19.20;99.90;;;;;;12391652;28;20042;-40
2021/06/28 20:39:48;;;;;;;6.50;4.10;;;19.00;99.90;;;;;;12391209;28;20512;-39
2021/06/28 20:45:50;;;;;;;7.85;4.63;;;18.70;99.90;;;;;;12390727;28;20305;-39
2021/06/28 20:51:52;;;;;;;8.20;4.80;;;18.70;99.90;;;;;;12395508;28;20412;-39
2021/06/28 20:57:54;;;;;;;8.57;4.95;;;18.80;99.90;;;;;;12397929;28;20076;-40
2021/06/28 21:03:55;;;;;;;6.20;4.30;;;18.90;99.90;;;;;;12393614;28;20124;-41
2021/06/28 21:09:57;;;;;;;8.48;4.15;;;19.10;99.90;;;;;;12397876;28;20137;-40
2021/06/28 21:16:00;;;;;;;7.22;4.63;;;19.00;99.90;;;;;;12398151;28;20104;-40
2021/06/28 21:22:02;;;;;;;6.55;4.25;;;19.00;99.90;;;;;;12402588;28;20108;-40
2021/06/28 21:28:04;;;;;;;6.68;4.30;;;19.10;99.90;;;;;;12402408;28;20069;-40
2021/06/28 21:34:06;;;;;;;7.93;5.00;;;19.00;99.90;;;;;;12400514;28;20054;-40
2021/06/28 21:40:08;;;;;;;9.70;5.30;;;19.00;99.90;;;;;;12401357;28;20153;-39
2021/06/28 21:46:10;;;;;;;18.50;4.70;;;18.90;99.90;;;;;;12398216;28;20460;-40
2021/06/28 21:52:13;;;;;;;17.25;5.18;;;18.70;99.90;;;;;;12397730;28;20142;-40
2021/06/28 21:58:14;;;;;;;20.27;5.00;;;18.70;99.90;;;;;;12393325;28;20137;-40
2021/06/28 22:04:16;;;;;;;12.55;5.13;;;18.70;99.90;;;;;;12398123;28;20443;-40
2021/06/28 22:10:18;;;;;;;12.40;5.15;;;18.60;99.90;;;;;;12396938;28;20060;-41
2021/06/28 22:16:20;;;;;;;9.15;4.88;;;18.60;99.90;;;;;;12396815;28;20050;-40
2021/06/28 22:22:22;;;;;;;13.75;5.35;;;18.60;99.90;;;;;;12398557;28;20072;-39
2021/06/28 22:28:24;;;;;;;8.95;5.72;;;18.60;99.90;;;;;;12402931;28;20111;-40
2021/06/28 22:34:26;;;;;;;17.83;5.78;;;18.60;99.90;;;;;;12403124;28;20552;-39
2021/06/28 22:40:28;;;;;;;14.18;5.82;;;18.70;99.90;;;;;;12405677;28;20129;-42
2021/06/28 22:46:30;;;;;;;31.20;6.18;;;18.70;99.90;;;;;;12393098;28;20128;-40
2021/06/28 22:52:32;;;;;;;20.13;5.50;;;18.60;99.90;;;;;;12396498;28;20126;-39
2021/06/28 22:58:33;;;;;;;17.67;5.57;;;18.50;99.90;;;;;;12399916;28;20546;-39
2021/06/28 23:04:36;;;;;;;18.30;5.07;;;18.50;99.90;;;;;;12397767;28;20054;-40
2021/06/28 23:10:38;;;;;;;15.35;5.53;;;18.50;99.90;;;;;;12398474;28;20596;-40
2021/06/28 23:16:40;;;;;;;12.80;5.85;;;18.40;99.90;;;;;;12395184;28;20561;-40
2021/06/28 23:22:42;;;;;;;17.55;6.53;;;18.30;99.90;;;;;;12399385;28;20047;-40
2021/06/28 23:28:44;;;;;;;20.70;6.43;;;18.40;99.90;;;;;;12395163;28;20154;-40
2021/06/28 23:34:46;;;;;;;22.60;6.20;;;18.30;99.90;;;;;;12397729;28;20136;-40
2021/06/28 23:40:50;;;;;;;23.83;6.95;;;18.20;99.90;;;;;;12395909;28;20080;-40
2021/06/28 23:46:52;;;;;;;21.60;6.30;;;18.20;99.90;;;;;;12399085;28;20149;-40
2021/06/28 23:52:54;;;;;;;13.60;6.13;;;18.40;99.90;;;;;;12399495;28;20996;-40
2021/06/28 23:58:56;;;;;;;13.10;6.80;;;18.40;99.90;;;;;;12396526;28;20057;-40
